GMA1A EGPF-EGPW

Flight info

Callsign GMA1A
Flight time 1h 16m
Altitude 29000
Route PTH P600 ADN Y905 WAFIL
Aircraft BE20/L-SBGRY/S

Departure

Time 2026-05-05 11:03
Airport Glasgow Airport (EGPF)

Arrival

Time 2026-05-05 12:20
Airport Unst Airfield (EGPW)
Time Latitude Longitude Altitude Speed Heading
2026-05-05 11:03 55.73132 -3.94397 7053 ft 176 kts 44°
2026-05-05 11:03 55.73649 -3.92427 7059 ft 182 kts 81°
2026-05-05 11:03 55.73394 -3.90240 7053 ft 185 kts 118°
2026-05-05 11:03 55.72720 -3.88290 7053 ft 186 kts 122°
2026-05-05 11:04 55.72021 -3.86355 7054 ft 187 kts 121°
2026-05-05 11:04 55.71324 -3.84403 7051 ft 188 kts 120°
2026-05-05 11:04 55.70629 -3.82439 7053 ft 188 kts 121°
2026-05-05 11:04 55.69978 -3.80449 7037 ft 184 kts 106°
2026-05-05 11:05 55.70019 -3.78276 7048 ft 177 kts 62°
2026-05-05 11:05 55.70885 -3.76811 7237 ft 181 kts 21°
2026-05-05 11:05 55.72120 -3.76160 7646 ft 190 kts
2026-05-05 11:05 55.73445 -3.75649 8070 ft 200 kts 10°
2026-05-05 11:06 55.74820 -3.74986 8486 ft 209 kts 13°
2026-05-05 11:06 55.76228 -3.74215 8907 ft 214 kts 14°
2026-05-05 11:06 55.77668 -3.73423 9322 ft 219 kts 13°
2026-05-05 11:06 55.79134 -3.72631 9737 ft 222 kts 13°
2026-05-05 11:07 55.80618 -3.71831 10129 ft 223 kts 13°
2026-05-05 11:07 55.82099 -3.71030 10556 ft 221 kts 13°
2026-05-05 11:07 55.83540 -3.70250 11030 ft 218 kts 12°
2026-05-05 11:07 55.84987 -3.69468 11539 ft 217 kts 12°
2026-05-05 11:08 55.86436 -3.68685 12046 ft 218 kts 12°
2026-05-05 11:08 55.87886 -3.67899 12561 ft 218 kts 12°
2026-05-05 11:08 55.89343 -3.67108 13086 ft 219 kts 11°
2026-05-05 11:08 55.90808 -3.66314 13621 ft 221 kts 11°
2026-05-05 11:09 55.92285 -3.65519 14129 ft 222 kts 11°
2026-05-05 11:09 55.93771 -3.64725 14612 ft 223 kts 11°
2026-05-05 11:09 55.95212 -3.63955 15083 ft 221 kts 11°
2026-05-05 11:09 55.96700 -3.63155 15588 ft 218 kts 11°
2026-05-05 11:10 55.98145 -3.62384 16087 ft 216 kts 11°
2026-05-05 11:10 55.99595 -3.61601 16600 ft 219 kts 11°
2026-05-05 11:10 56.01060 -3.60799 17117 ft 221 kts 11°
2026-05-05 11:10 56.02535 -3.59988 17657 ft 222 kts 11°
2026-05-05 11:11 56.04019 -3.59174 18197 ft 225 kts 11°
2026-05-05 11:11 56.05528 -3.58348 18693 ft 229 kts 11°
2026-05-05 11:11 56.07060 -3.57506 19174 ft 232 kts 11°
2026-05-05 11:11 56.08608 -3.56654 19662 ft 234 kts 12°
2026-05-05 11:12 56.10167 -3.55796 20156 ft 235 kts 12°
2026-05-05 11:12 56.11734 -3.54933 20656 ft 236 kts 12°
2026-05-05 11:12 56.13305 -3.54067 21169 ft 236 kts 12°
2026-05-05 11:12 56.14879 -3.53198 21686 ft 237 kts 12°
2026-05-05 11:13 56.16452 -3.52330 22212 ft 237 kts 12°
2026-05-05 11:13 56.18026 -3.51461 22745 ft 236 kts 12°
2026-05-05 11:13 56.19593 -3.50594 23287 ft 235 kts 12°
2026-05-05 11:13 56.21153 -3.49731 23800 ft 234 kts 12°
2026-05-05 11:14 56.22702 -3.48873 24261 ft 232 kts 12°
2026-05-05 11:14 56.24243 -3.48019 24728 ft 231 kts 12°
2026-05-05 11:14 56.25772 -3.47171 25216 ft 229 kts 12°
2026-05-05 11:14 56.27291 -3.46329 25705 ft 228 kts 11°
2026-05-05 11:15 56.28799 -3.45490 26197 ft 226 kts 11°
2026-05-05 11:15 56.30295 -3.44658 26695 ft 224 kts 11°
2026-05-05 11:15 56.31776 -3.43834 27206 ft 222 kts 10°
2026-05-05 11:15 56.33242 -3.43017 27721 ft 219 kts 10°
2026-05-05 11:16 56.34687 -3.42211 28237 ft 216 kts
2026-05-05 11:16 56.36110 -3.41417 28770 ft 212 kts
2026-05-05 11:16 56.37533 -3.40627 29056 ft 222 kts 10°
2026-05-05 11:16 56.39070 -3.39780 29083 ft 239 kts 11°
2026-05-05 11:17 56.40719 -3.38855 29085 ft 256 kts 11°
2026-05-05 11:17 56.42458 -3.37874 29084 ft 268 kts 12°
2026-05-05 11:17 56.44246 -3.36738 29081 ft 279 kts 22°
2026-05-05 11:17 56.45892 -3.34854 29081 ft 288 kts 30°
2026-05-05 11:18 56.47577 -3.32751 29082 ft 293 kts 30°
2026-05-05 11:18 56.49268 -3.30653 29083 ft 296 kts 30°
2026-05-05 11:18 56.50977 -3.28544 29079 ft 299 kts 30°
2026-05-05 11:18 56.52674 -3.26443 29082 ft 300 kts 30°
2026-05-05 11:19 56.54405 -3.24296 29078 ft 302 kts 30°
2026-05-05 11:19 56.57879 -3.19977 29082 ft 303 kts 30°
2026-05-05 11:20 56.61365 -3.15636 29084 ft 304 kts 30°
2026-05-05 11:20 56.64856 -3.11280 29081 ft 304 kts 30°
2026-05-05 11:21 56.68346 -3.06913 29083 ft 305 kts 30°
2026-05-05 11:21 56.71836 -3.02541 29083 ft 305 kts 30°
2026-05-05 11:22 56.74737 -2.98903 29083 ft 305 kts 30°
2026-05-05 11:22 56.78229 -2.94509 29080 ft 305 kts 30°
2026-05-05 11:23 56.81717 -2.90100 29073 ft 306 kts 29°
2026-05-05 11:23 56.85222 -2.85663 29082 ft 306 kts 29°
2026-05-05 11:24 56.88729 -2.81214 29082 ft 307 kts 28°
2026-05-05 11:24 56.92237 -2.76757 29089 ft 307 kts 29°
2026-05-05 11:25 56.95748 -2.72293 29089 ft 307 kts 29°
2026-05-05 11:25 56.99250 -2.67820 29091 ft 308 kts 29°
2026-05-05 11:26 57.02760 -2.63327 29097 ft 307 kts 29°
2026-05-05 11:26 57.06268 -2.58827 29100 ft 308 kts 29°
2026-05-05 11:27 57.09776 -2.54315 29101 ft 309 kts 28°
2026-05-05 11:27 57.13302 -2.49769 29102 ft 309 kts 28°
2026-05-05 11:28 57.16824 -2.45218 29105 ft 310 kts 28°
2026-05-05 11:28 57.20352 -2.40648 29107 ft 310 kts 28°
2026-05-05 11:29 57.23881 -2.36067 29106 ft 310 kts 28°
2026-05-05 11:29 57.27411 -2.31473 29107 ft 311 kts 28°
2026-05-05 11:30 57.30934 -2.26844 29104 ft 311 kts 32°
2026-05-05 11:30 57.34090 -2.21260 29106 ft 315 kts 38°
2026-05-05 11:31 57.37241 -2.15612 29106 ft 317 kts 37°
2026-05-05 11:31 57.40407 -2.09900 29111 ft 318 kts 37°
2026-05-05 11:32 57.43578 -2.04170 29114 ft 318 kts 37°
2026-05-05 11:32 57.46726 -1.98466 29116 ft 319 kts 37°
2026-05-05 11:33 57.49897 -1.92707 29116 ft 319 kts 37°
2026-05-05 11:33 57.53063 -1.86941 29113 ft 319 kts 37°
2026-05-05 11:34 57.56551 -1.82268 29117 ft 301 kts 13°
2026-05-05 11:34 57.58525 -1.81193 29116 ft 291 kts
2026-05-05 11:34 57.60513 -1.80747 29116 ft 287 kts 357°
2026-05-05 11:34 57.62501 -1.80322 29114 ft 288 kts 357°
2026-05-05 11:35 57.64497 -1.79887 29147 ft 289 kts 356°
2026-05-05 11:35 57.66497 -1.79455 29114 ft 289 kts 356°
2026-05-05 11:35 57.68491 -1.79025 29113 ft 288 kts 356°
2026-05-05 11:35 57.70483 -1.78596 29118 ft 288 kts 356°
2026-05-05 11:36 57.72471 -1.78168 29121 ft 287 kts 356°
2026-05-05 11:36 57.74457 -1.77739 29120 ft 287 kts 356°
2026-05-05 11:36 57.76442 -1.77310 29120 ft 287 kts 356°
2026-05-05 11:36 57.78425 -1.76880 29119 ft 287 kts 356°
2026-05-05 11:37 57.80409 -1.76450 29116 ft 287 kts 356°
2026-05-05 11:37 57.82391 -1.76020 29116 ft 287 kts 356°
2026-05-05 11:37 57.84374 -1.75590 29116 ft 287 kts 356°
2026-05-05 11:37 57.86356 -1.75158 29116 ft 287 kts 356°
2026-05-05 11:38 57.88340 -1.74726 29115 ft 287 kts 356°
2026-05-05 11:38 57.90320 -1.74295 29115 ft 287 kts 356°
2026-05-05 11:38 57.92304 -1.73862 29123 ft 288 kts 356°
2026-05-05 11:38 57.94290 -1.73428 29122 ft 287 kts 356°
2026-05-05 11:39 57.96270 -1.72994 29119 ft 286 kts 356°
2026-05-05 11:39 57.98242 -1.72562 29116 ft 285 kts 356°
2026-05-05 11:39 58.00214 -1.72131 29118 ft 285 kts 356°
2026-05-05 11:39 58.02185 -1.71699 29114 ft 285 kts 356°
2026-05-05 11:40 58.04153 -1.71266 29114 ft 285 kts 356°
2026-05-05 11:40 58.06120 -1.70834 29114 ft 285 kts 356°
2026-05-05 11:40 58.08088 -1.70400 29111 ft 284 kts 356°
2026-05-05 11:40 58.10052 -1.69968 29113 ft 284 kts 356°
2026-05-05 11:41 58.12017 -1.69534 29110 ft 284 kts 356°
2026-05-05 11:41 58.13983 -1.69100 29106 ft 284 kts 356°
2026-05-05 11:41 58.15948 -1.68666 29107 ft 285 kts 356°
2026-05-05 11:41 58.17915 -1.68230 29103 ft 285 kts 356°
2026-05-05 11:42 58.19884 -1.67794 29122 ft 286 kts 356°
2026-05-05 11:42 58.21859 -1.67356 29115 ft 286 kts 356°
2026-05-05 11:42 58.23830 -1.66917 29115 ft 285 kts 356°
2026-05-05 11:42 58.25799 -1.66479 29115 ft 285 kts 356°
2026-05-05 11:43 58.27763 -1.66042 29112 ft 284 kts 356°
2026-05-05 11:43 58.29728 -1.65605 29112 ft 284 kts 356°
2026-05-05 11:43 58.31666 -1.65172 29111 ft 284 kts 356°
2026-05-05 11:43 58.33629 -1.64734 29111 ft 284 kts 356°
2026-05-05 11:44 58.35588 -1.64296 29110 ft 284 kts 356°
2026-05-05 11:44 58.37551 -1.63856 29107 ft 284 kts 356°
2026-05-05 11:44 58.39513 -1.63417 29107 ft 284 kts 356°
2026-05-05 11:44 58.41474 -1.62976 29107 ft 284 kts 356°
2026-05-05 11:45 58.43437 -1.62542 29111 ft 284 kts 355°
2026-05-05 11:45 58.45394 -1.62164 29110 ft 283 kts 355°
2026-05-05 11:45 58.47355 -1.61686 29127 ft 285 kts 356°
2026-05-05 11:45 58.49326 -1.61196 29107 ft 285 kts 356°
2026-05-05 11:46 58.51291 -1.60753 29102 ft 284 kts 355°
2026-05-05 11:46 58.53256 -1.60324 29102 ft 284 kts 355°
2026-05-05 11:46 58.55218 -1.59883 29102 ft 284 kts 355°
2026-05-05 11:46 58.57182 -1.59435 29101 ft 284 kts 355°
2026-05-05 11:47 58.59145 -1.58988 29107 ft 284 kts 355°
2026-05-05 11:47 58.61106 -1.58543 29110 ft 284 kts 355°
2026-05-05 11:47 58.63067 -1.58099 29107 ft 284 kts 355°
2026-05-05 11:47 58.65029 -1.57653 29107 ft 284 kts 355°
2026-05-05 11:48 58.68949 -1.56759 29101 ft 284 kts 355°
2026-05-05 11:48 58.70910 -1.56312 29113 ft 284 kts 355°
2026-05-05 11:48 58.72871 -1.55864 29100 ft 284 kts 355°
2026-05-05 11:49 58.74831 -1.55416 29105 ft 284 kts 355°
2026-05-05 11:49 58.76791 -1.54967 29113 ft 284 kts 355°
2026-05-05 11:49 58.78753 -1.54517 29105 ft 284 kts 355°
2026-05-05 11:49 58.80715 -1.54067 29103 ft 284 kts 355°
2026-05-05 11:50 58.82650 -1.53622 29100 ft 284 kts 355°
2026-05-05 11:50 58.84611 -1.53171 29105 ft 284 kts 355°
2026-05-05 11:50 58.86573 -1.52719 29100 ft 284 kts 355°
2026-05-05 11:50 58.88534 -1.52267 29111 ft 284 kts 355°
2026-05-05 11:51 58.90497 -1.51814 29098 ft 284 kts 355°
2026-05-05 11:51 58.92458 -1.51361 29098 ft 284 kts 355°
2026-05-05 11:51 58.94421 -1.50906 29102 ft 284 kts 355°
2026-05-05 11:51 58.96382 -1.50452 29098 ft 284 kts 355°
2026-05-05 11:52 58.98346 -1.49997 29108 ft 284 kts 355°
2026-05-05 11:52 59.00307 -1.49541 29098 ft 284 kts 355°
2026-05-05 11:52 59.02267 -1.49086 29130 ft 284 kts 355°
2026-05-05 11:52 59.04239 -1.48628 29102 ft 285 kts 354°
2026-05-05 11:53 59.06203 -1.48168 29102 ft 284 kts 354°
2026-05-05 11:53 59.08162 -1.47710 29102 ft 283 kts 354°
2026-05-05 11:53 59.10120 -1.47253 29102 ft 283 kts 354°
2026-05-05 11:53 59.12070 -1.46798 29101 ft 282 kts 354°
2026-05-05 11:54 59.14023 -1.46341 29101 ft 282 kts 354°
2026-05-05 11:54 59.15972 -1.45884 29101 ft 282 kts 354°
2026-05-05 11:54 59.17919 -1.45428 29101 ft 282 kts 354°
2026-05-05 11:54 59.19867 -1.44970 29101 ft 282 kts 354°
2026-05-05 11:55 59.21816 -1.44512 29094 ft 282 kts 354°
2026-05-05 11:55 59.23763 -1.44054 29094 ft 282 kts 354°
2026-05-05 11:55 59.25708 -1.43595 29091 ft 282 kts 354°
2026-05-05 11:55 59.27655 -1.43135 29091 ft 282 kts 354°
2026-05-05 11:56 59.29602 -1.42675 29095 ft 282 kts 354°
2026-05-05 11:56 59.31571 -1.42217 28895 ft 290 kts 354°
2026-05-05 11:56 59.33591 -1.41744 28570 ft 294 kts 354°
2026-05-05 11:56 59.35630 -1.41252 28249 ft 296 kts 354°
2026-05-05 11:57 59.37675 -1.40758 27926 ft 296 kts 354°
2026-05-05 11:57 59.39715 -1.40273 27601 ft 295 kts 354°
2026-05-05 11:57 59.41760 -1.39792 27178 ft 297 kts 355°
2026-05-05 11:57 59.43793 -1.39310 26772 ft 299 kts 355°
2026-05-05 11:58 59.45860 -1.38814 26368 ft 300 kts 355°
2026-05-05 11:58 59.47934 -1.38317 25966 ft 300 kts 355°
2026-05-05 11:58 59.50009 -1.37820 25569 ft 301 kts 355°
2026-05-05 11:58 59.52085 -1.37324 25177 ft 301 kts 355°
2026-05-05 11:59 59.54162 -1.36826 24790 ft 301 kts 355°
2026-05-05 11:59 59.56238 -1.36327 24408 ft 301 kts 355°
2026-05-05 11:59 59.58315 -1.35827 24028 ft 301 kts 356°
2026-05-05 11:59 59.60390 -1.35325 23704 ft 300 kts 355°
2026-05-05 12:00 59.62457 -1.34825 23271 ft 299 kts 355°
2026-05-05 12:00 59.64511 -1.34327 22832 ft 297 kts 355°
2026-05-05 12:00 59.66558 -1.33832 22396 ft 295 kts 355°
2026-05-05 12:00 59.68594 -1.33339 21966 ft 294 kts 355°
2026-05-05 12:01 59.70617 -1.32848 21544 ft 293 kts 355°
2026-05-05 12:01 59.72634 -1.32359 21117 ft 291 kts 355°
2026-05-05 12:01 59.74639 -1.31871 20715 ft 290 kts 355°
2026-05-05 12:01 59.76637 -1.31384 20296 ft 289 kts 356°
2026-05-05 12:02 59.78627 -1.30899 19912 ft 287 kts 356°
2026-05-05 12:02 59.80603 -1.30416 19517 ft 285 kts 356°
2026-05-05 12:02 59.82566 -1.29936 19127 ft 284 kts 356°
2026-05-05 12:02 59.84519 -1.29459 18742 ft 282 kts 356°
2026-05-05 12:03 59.86461 -1.28983 18356 ft 280 kts 356°
2026-05-05 12:03 59.88388 -1.28408 17953 ft 283 kts
2026-05-05 12:03 59.90313 -1.27473 17508 ft 286 kts
2026-05-05 12:03 59.92249 -1.26510 17071 ft 287 kts
2026-05-05 12:04 59.94188 -1.25564 16639 ft 287 kts
2026-05-05 12:04 59.96102 -1.24639 16220 ft 287 kts
2026-05-05 12:04 59.98042 -1.23696 15800 ft 287 kts
2026-05-05 12:04 59.99983 -1.22747 15384 ft 287 kts
2026-05-05 12:05 60.01921 -1.21799 14970 ft 286 kts
2026-05-05 12:05 60.03847 -1.20858 14571 ft 285 kts
2026-05-05 12:05 60.05769 -1.19921 14168 ft 283 kts
2026-05-05 12:05 60.07679 -1.18994 13759 ft 282 kts 10°
2026-05-05 12:06 60.09580 -1.18072 13309 ft 280 kts 10°
2026-05-05 12:06 60.11469 -1.17158 12869 ft 279 kts 10°
2026-05-05 12:06 60.13347 -1.16252 12435 ft 277 kts 10°
2026-05-05 12:06 60.15215 -1.15352 12003 ft 275 kts 10°
2026-05-05 12:07 60.17070 -1.14462 11600 ft 273 kts 10°
2026-05-05 12:07 60.18912 -1.13578 11179 ft 271 kts 10°
2026-05-05 12:07 60.20743 -1.12702 10766 ft 270 kts 10°
2026-05-05 12:07 60.22560 -1.11836 10360 ft 268 kts 10°
2026-05-05 12:08 60.24366 -1.10976 9950 ft 266 kts 10°
2026-05-05 12:08 60.26164 -1.10121 9506 ft 265 kts 10°
2026-05-05 12:08 60.27950 -1.09275 9058 ft 263 kts 10°
2026-05-05 12:08 60.29730 -1.08434 8630 ft 262 kts 10°
2026-05-05 12:09 60.31496 -1.07601 8201 ft 260 kts 10°
2026-05-05 12:09 60.33252 -1.06776 7768 ft 259 kts 10°
2026-05-05 12:09 60.34998 -1.05956 7350 ft 257 kts 10°
2026-05-05 12:09 60.36736 -1.05143 6936 ft 255 kts 10°
2026-05-05 12:10 60.38462 -1.04338 6530 ft 254 kts
2026-05-05 12:10 60.39601 -1.03807 6247 ft 253 kts 10°
2026-05-05 12:10 60.41312 -1.03012 5813 ft 252 kts 10°
2026-05-05 12:10 60.43013 -1.02224 5384 ft 250 kts 10°
2026-05-05 12:11 60.45253 -1.01190 4833 ft 248 kts 10°
2026-05-05 12:11 60.46934 -1.00416 4405 ft 247 kts
2026-05-05 12:11 60.48602 -0.99651 3980 ft 245 kts
2026-05-05 12:11 60.50259 -0.98893 3559 ft 243 kts
2026-05-05 12:12 60.51369 -0.98385 3274 ft 242 kts
2026-05-05 12:12 60.52983 -0.97649 2853 ft 240 kts
2026-05-05 12:12 60.54612 -0.96909 2438 ft 240 kts
2026-05-05 12:12 60.56236 -0.96174 2026 ft 238 kts
2026-05-05 12:13 60.57805 -0.95460 2002 ft 225 kts
2026-05-05 12:13 60.59313 -0.94771 1995 ft 219 kts
2026-05-05 12:13 60.60785 -0.94099 1993 ft 214 kts
2026-05-05 12:13 60.62234 -0.93441 1989 ft 213 kts
2026-05-05 12:14 60.63675 -0.92790 1987 ft 212 kts
2026-05-05 12:14 60.65112 -0.92148 1986 ft 211 kts
2026-05-05 12:14 60.66548 -0.91511 1986 ft 210 kts
2026-05-05 12:14 60.67968 -0.90887 1993 ft 209 kts
2026-05-05 12:15 60.69392 -0.90266 1991 ft 208 kts
2026-05-05 12:15 60.70783 -0.89662 1988 ft 195 kts
2026-05-05 12:15 60.72038 -0.89100 1989 ft 176 kts
2026-05-05 12:15 60.73196 -0.88561 1936 ft 168 kts 10°
2026-05-05 12:16 60.74327 -0.87838 1694 ft 171 kts 17°
2026-05-05 12:16 60.75373 -0.86658 1492 ft 174 kts 36°
2026-05-05 12:16 60.76005 -0.84586 1430 ft 172 kts 68°
2026-05-05 12:16 60.76014 -0.82190 1361 ft 163 kts 96°
2026-05-05 12:17 60.75744 -0.80021 1236 ft 153 kts 101°
2026-05-05 12:17 60.75425 -0.78001 1089 ft 148 kts 111°
2026-05-05 12:17 60.74751 -0.76437 972 ft 139 kts 147°
2026-05-05 12:17 60.73937 -0.75918 912 ft 113 kts 187°
2026-05-05 12:18 60.73292 -0.76478 760 ft 97 kts 234°
2026-05-05 12:18 60.72977 -0.77659 663 ft 97 kts 268°
2026-05-05 12:18 60.73136 -0.78980 661 ft 102 kts 305°
2026-05-05 12:18 60.73520 -0.80191 543 ft 100 kts 304°
2026-05-05 12:19 60.73834 -0.81485 419 ft 102 kts 301°
2026-05-05 12:19 60.74126 -0.82777 312 ft 99 kts 298°
2026-05-05 12:19 60.74387 -0.84019 152 ft 90 kts 296°
2026-05-05 12:19 60.74619 -0.85108 60 ft 74 kts 299°
2026-05-05 12:20 60.74692 -0.85447 57 ft 9 kts 293°
2026-05-05 12:20 60.74716 -0.85587 58 ft 10 kts 333°
2026-05-05 12:20 60.74704 -0.85494 57 ft 18 kts 126°
2026-05-05 12:20 60.74661 -0.85277 55 ft 13 kts 93°
2026-05-05 12:21 60.74704 -0.85210 54 ft 1 kts 22°
2026-05-05 12:21 60.74708 -0.85207 54 ft 0 kts 22°
2026-05-05 12:21 60.74746 -0.85183 51 ft 10 kts 341°
2026-05-05 12:21 60.74758 -0.85242 50 ft 0 kts 207°